createdAt,value
2022-10-23T00:01:42.637Z,4.25
2022-10-23T00:04:16.406Z,4.03
2022-10-23T00:06:43.555Z,4.88
2022-10-23T00:09:12.640Z,4.30
2022-10-23T00:11:39.831Z,3.60
2022-10-23T00:14:08.229Z,4.43
2022-10-23T00:16:35.172Z,4.28
2022-10-23T00:19:02.110Z,4.00
2022-10-23T00:21:29.233Z,4.90
2022-10-23T00:23:55.972Z,4.00
2022-10-23T00:26:22.601Z,3.88
2022-10-23T00:28:52.200Z,4.40
2022-10-23T00:31:21.051Z,4.40
2022-10-23T00:33:48.144Z,4.13
2022-10-23T00:36:16.769Z,4.43
2022-10-23T00:38:43.512Z,4.10
2022-10-23T00:41:16.070Z,4.22
2022-10-23T00:44:01.582Z,3.95
2022-10-23T00:46:29.056Z,4.53
2022-10-23T00:48:58.128Z,3.80
2022-10-23T00:51:27.784Z,3.55
2022-10-23T00:54:12.641Z,3.83
2022-10-23T00:56:46.728Z,4.60
2022-10-23T00:59:14.064Z,3.33
2022-10-23T01:01:41.321Z,3.72
2022-10-23T01:04:08.741Z,3.75
2022-10-23T01:06:50.802Z,3.92
2022-10-23T01:09:20.328Z,3.95
2022-10-23T01:14:49.526Z,4.50
2022-10-23T01:17:25.773Z,4.03
2022-10-23T01:20:31.827Z,3.72
2022-10-23T01:23:23.382Z,3.80
2022-10-23T01:26:15.440Z,3.83
2022-10-23T01:28:53.350Z,4.00
2022-10-23T01:31:29.121Z,4.22
2022-10-23T01:34:00.531Z,3.67
2022-10-23T01:36:29.874Z,4.65
2022-10-23T01:39:09.793Z,4.05
2022-10-23T01:42:03.828Z,4.05
2022-10-23T01:44:46.914Z,4.00
2022-10-23T01:47:17.048Z,3.70
2022-10-23T01:49:45.891Z,3.90
2022-10-23T01:52:14.449Z,3.40
2022-10-23T01:54:43.989Z,4.40
2022-10-23T01:59:44.713Z,4.10
2022-10-23T02:02:13.383Z,4.38
2022-10-23T02:04:48.331Z,5.30
2022-10-23T02:07:15.300Z,4.72
2022-10-23T02:09:41.838Z,4.65
2022-10-23T02:12:13.348Z,4.00
2022-10-23T02:14:51.714Z,3.58
2022-10-23T02:17:44.642Z,3.83
2022-10-23T02:20:17.296Z,3.13
2022-10-23T02:22:58.561Z,3.65
2022-10-23T02:25:33.609Z,3.92
2022-10-23T02:28:05.045Z,3.83
2022-10-23T02:30:33.627Z,3.80
2022-10-23T02:33:02.512Z,3.93
2022-10-23T02:35:29.000Z,4.25
2022-10-23T02:38:00.716Z,2.97
2022-10-23T02:40:38.891Z,3.25
2022-10-23T02:43:17.020Z,4.07
2022-10-23T02:45:56.041Z,3.42
2022-10-23T02:48:29.480Z,3.67
2022-10-23T02:51:11.615Z,3.60
2022-10-23T02:54:06.673Z,3.80
2022-10-23T02:56:59.888Z,3.83
2022-10-23T02:59:43.946Z,3.08
2022-10-23T03:02:21.448Z,3.15
2022-10-23T03:04:48.684Z,3.03
2022-10-23T03:07:18.053Z,3.38
2022-10-23T03:09:44.534Z,3.70
2022-10-23T03:12:11.086Z,3.00
2022-10-23T03:14:37.617Z,3.42
2022-10-23T03:17:04.747Z,3.17
2022-10-23T03:19:31.240Z,3.67
2022-10-23T03:21:57.697Z,2.78
2022-10-23T03:24:24.153Z,3.15
2022-10-23T03:26:50.592Z,3.28
2022-10-23T03:29:17.102Z,2.92
2022-10-23T03:31:43.648Z,2.97
2022-10-23T03:34:11.469Z,3.40
2022-10-23T03:36:38.064Z,3.20
2022-10-23T03:39:04.799Z,3.08
2022-10-23T03:41:32.106Z,3.80
2022-10-23T03:43:58.915Z,2.95
2022-10-23T03:46:25.532Z,3.42
2022-10-23T03:48:52.112Z,3.10
2022-10-23T03:51:18.608Z,2.58
2022-10-23T03:53:45.137Z,2.70
2022-10-23T03:56:11.627Z,2.90
2022-10-23T03:58:38.181Z,3.00
2022-10-23T04:01:04.750Z,3.47
2022-10-23T04:03:31.260Z,3.30
2022-10-23T04:05:57.745Z,2.83
2022-10-23T04:08:24.687Z,3.03
2022-10-23T04:10:51.298Z,2.70
2022-10-23T04:13:17.774Z,3.00
2022-10-23T04:15:51.852Z,2.90
2022-10-23T04:18:19.134Z,3.63
2022-10-23T04:20:50.352Z,3.30
2022-10-23T04:23:17.050Z,2.92
2022-10-23T04:25:43.708Z,2.88
2022-10-23T04:28:10.276Z,2.42
2022-10-23T04:30:36.836Z,2.78
2022-10-23T04:33:03.623Z,2.60
2022-10-23T04:35:30.231Z,2.58
2022-10-23T04:37:56.779Z,2.95
2022-10-23T04:40:23.496Z,2.83
2022-10-23T04:42:50.025Z,2.85
2022-10-23T04:45:16.570Z,2.95
2022-10-23T04:47:43.280Z,2.90
2022-10-23T04:50:09.951Z,2.85
2022-10-23T04:52:36.498Z,2.58
2022-10-23T04:55:03.146Z,2.65
2022-10-23T04:57:29.581Z,3.22
2022-10-23T04:59:56.167Z,2.85
2022-10-23T05:02:24.293Z,3.15
2022-10-23T05:04:51.135Z,3.42
2022-10-23T05:07:17.709Z,3.10
2022-10-23T05:09:44.241Z,2.85
2022-10-23T05:12:10.667Z,3.40
2022-10-23T05:14:37.144Z,2.90
2022-10-23T05:17:11.625Z,3.05
2022-10-23T05:19:43.640Z,2.67
2022-10-23T05:22:10.955Z,2.75
2022-10-23T05:24:37.622Z,3.03
2022-10-23T05:27:04.263Z,3.20
2022-10-23T05:29:30.710Z,3.17
2022-10-23T05:32:00.702Z,3.08
2022-10-23T05:34:29.167Z,3.08
2022-10-23T05:36:55.851Z,3.67
2022-10-23T05:39:22.430Z,3.40
2022-10-23T05:41:48.934Z,3.10
2022-10-23T05:44:15.404Z,2.83
2022-10-23T05:46:43.016Z,3.47
2022-10-23T05:49:09.752Z,3.25
2022-10-23T05:51:38.003Z,3.03
2022-10-23T05:54:07.665Z,3.10
2022-10-23T05:56:35.590Z,3.08
2022-10-23T05:59:02.097Z,2.63
2022-10-23T06:01:32.331Z,3.33
2022-10-23T06:04:00.612Z,2.80
2022-10-23T06:06:27.601Z,2.97
2022-10-23T06:08:54.998Z,3.00
2022-10-23T06:11:21.738Z,3.15
2022-10-23T06:13:48.734Z,3.25
2022-10-23T06:16:17.972Z,3.80
2022-10-23T06:18:45.858Z,3.10
2022-10-23T06:21:12.893Z,3.22
2022-10-23T06:23:40.526Z,3.15
2022-10-23T06:26:08.826Z,3.53
2022-10-23T06:28:36.142Z,2.75
2022-10-23T06:31:11.327Z,2.50
2022-10-23T06:33:37.913Z,3.20
2022-10-23T06:36:05.446Z,3.33
2022-10-23T06:38:37.406Z,3.10
2022-10-23T06:41:05.036Z,3.20
2022-10-23T06:43:31.505Z,2.60
2022-10-23T06:46:01.695Z,2.97
2022-10-23T06:48:28.158Z,2.88
2022-10-23T06:50:55.713Z,2.70
2022-10-23T06:53:24.688Z,3.28
2022-10-23T06:55:55.306Z,3.00
2022-10-23T06:58:22.160Z,2.78
2022-10-23T07:00:48.635Z,3.38
2022-10-23T07:03:15.133Z,2.97
2022-10-23T07:05:44.635Z,2.92
2022-10-23T07:10:37.458Z,3.42
2022-10-23T07:13:03.903Z,2.50
2022-10-23T07:15:30.522Z,3.15
2022-10-23T07:17:56.950Z,3.70
2022-10-23T07:20:23.386Z,3.72
2022-10-23T07:22:54.970Z,3.47
2022-10-23T07:25:22.801Z,2.50
2022-10-23T07:27:49.936Z,3.03
2022-10-23T07:30:16.506Z,3.10
2022-10-23T07:32:44.104Z,3.20
2022-10-23T07:35:12.348Z,3.00
2022-10-23T07:37:39.023Z,2.83
2022-10-23T07:40:06.824Z,2.67
2022-10-23T07:42:33.357Z,2.60
2022-10-23T07:44:59.859Z,3.40
2022-10-23T07:47:26.580Z,3.05
2022-10-23T07:49:53.071Z,3.58
2022-10-23T07:52:19.506Z,3.03
2022-10-23T07:54:45.919Z,3.10
2022-10-23T07:57:12.398Z,3.50
2022-10-23T07:59:38.908Z,3.00
2022-10-23T08:02:10.981Z,4.05
2022-10-23T08:04:37.890Z,2.75
2022-10-23T08:07:04.411Z,2.85
2022-10-23T08:09:31.358Z,3.03
2022-10-23T08:11:57.809Z,2.92
2022-10-23T08:14:24.264Z,2.95
2022-10-23T08:16:50.797Z,2.88
2022-10-23T08:19:17.505Z,2.83
2022-10-23T08:21:44.111Z,2.88
2022-10-23T08:24:13.838Z,2.75
2022-10-23T08:26:40.512Z,2.97
2022-10-23T08:29:07.012Z,2.50
2022-10-23T08:31:33.446Z,2.58
2022-10-23T08:33:59.865Z,2.28
2022-10-23T08:36:28.761Z,2.47
2022-10-23T08:38:56.886Z,2.58
2022-10-23T08:41:33.572Z,2.75
2022-10-23T08:44:21.496Z,2.50
2022-10-23T08:47:00.526Z,2.30
2022-10-23T08:49:52.228Z,2.33
2022-10-23T08:52:24.248Z,3.28
2022-10-23T08:55:02.850Z,2.67
2022-10-23T08:57:39.988Z,2.40
2022-10-23T09:00:14.503Z,2.80
2022-10-23T09:02:50.376Z,2.28
2022-10-23T09:05:31.601Z,2.70
2022-10-23T09:08:29.176Z,2.50
2022-10-23T09:10:59.490Z,2.95
2022-10-23T09:13:47.709Z,3.10
2022-10-23T09:16:32.226Z,2.47
2022-10-23T09:18:59.389Z,2.22
2022-10-23T09:21:29.012Z,2.47
2022-10-23T09:23:56.311Z,2.30
2022-10-23T09:26:23.231Z,2.13
2022-10-23T09:28:52.663Z,2.22
2022-10-23T09:34:01.216Z,2.40
2022-10-23T09:36:29.546Z,1.98
2022-10-23T09:38:58.912Z,2.35
2022-10-23T09:41:28.396Z,2.75
2022-10-23T09:44:07.259Z,2.55
2022-10-23T09:46:54.942Z,2.10
2022-10-23T09:49:25.631Z,2.78
2022-10-23T09:52:05.791Z,2.10
2022-10-23T09:54:37.306Z,2.20
2022-10-23T09:57:40.513Z,2.53
2022-10-23T10:00:27.939Z,2.22
2022-10-23T10:03:01.011Z,2.25
2022-10-23T10:05:33.126Z,2.13
2022-10-23T10:08:07.385Z,1.80
2022-10-23T10:10:37.860Z,2.10
2022-10-23T10:13:31.284Z,2.10
2022-10-23T10:16:28.986Z,1.80
2022-10-23T10:19:04.416Z,1.98
2022-10-23T10:21:54.890Z,1.95
2022-10-23T10:24:30.171Z,1.63
2022-10-23T10:27:31.225Z,1.90
2022-10-23T10:30:06.516Z,1.80
2022-10-23T10:32:45.390Z,1.67
2022-10-23T10:35:37.362Z,2.03
2022-10-23T10:38:25.489Z,1.80
2022-10-23T10:41:20.395Z,1.65
2022-10-23T10:43:57.343Z,1.70
2022-10-23T10:46:42.547Z,2.05
2022-10-23T10:49:41.390Z,2.33
2022-10-23T10:52:21.698Z,2.00
2022-10-23T10:55:17.721Z,1.75
2022-10-23T10:57:48.487Z,1.88
2022-10-23T11:00:20.557Z,1.73
2022-10-23T11:03:04.962Z,1.50
2022-10-23T11:05:39.623Z,1.65
2022-10-23T11:08:49.981Z,1.70
2022-10-23T11:11:33.245Z,1.50
2022-10-23T11:13:59.842Z,2.33
2022-10-23T11:16:31.887Z,1.92
2022-10-23T11:19:19.845Z,1.63
2022-10-23T11:21:46.227Z,1.80
2022-10-23T11:24:20.465Z,1.83
2022-10-23T11:27:20.578Z,1.95
2022-10-23T11:29:49.106Z,1.88
2022-10-23T11:32:43.650Z,1.83
2022-10-23T11:35:32.046Z,1.90
2022-10-23T11:38:16.610Z,1.70
2022-10-23T11:40:46.361Z,2.40
2022-10-23T11:43:12.957Z,2.08
2022-10-23T11:45:40.951Z,2.10
2022-10-23T11:48:36.767Z,2.13
2022-10-23T11:51:05.239Z,1.65
2022-10-23T11:53:31.730Z,2.37
2022-10-23T11:55:59.190Z,2.10
2022-10-23T11:58:32.131Z,1.95
2022-10-23T12:01:07.017Z,2.00
2022-10-23T12:03:47.666Z,2.10
2022-10-23T12:06:25.149Z,1.50
2022-10-23T12:09:04.925Z,1.65
2022-10-23T12:11:47.206Z,1.70
2022-10-23T12:14:37.381Z,1.45
2022-10-23T12:17:24.916Z,2.08
2022-10-23T12:19:55.757Z,1.95
2022-10-23T12:22:28.147Z,1.98
2022-10-23T12:25:03.911Z,1.80
2022-10-23T12:27:45.221Z,1.95
2022-10-23T12:30:20.722Z,2.17
2022-10-23T12:33:02.762Z,1.90
2022-10-23T12:35:53.565Z,2.20
2022-10-23T12:38:27.080Z,2.05
2022-10-23T12:41:00.340Z,1.95
2022-10-23T12:43:31.217Z,2.28
2022-10-23T12:46:05.007Z,2.58
2022-10-23T12:48:33.151Z,2.00
2022-10-23T12:50:59.615Z,2.58
2022-10-23T12:53:26.032Z,2.45
2022-10-23T12:58:34.147Z,2.63
2022-10-23T13:01:03.867Z,2.08
2022-10-23T13:03:32.578Z,2.35
2022-10-23T13:06:02.531Z,2.13
2022-10-23T13:08:41.136Z,2.10
2022-10-23T13:11:12.033Z,2.43
2022-10-23T13:13:40.642Z,2.38
2022-10-23T13:16:19.374Z,2.43
2022-10-23T13:18:46.062Z,2.08
2022-10-23T13:21:24.706Z,2.05
2022-10-23T13:23:52.709Z,2.30
2022-10-23T13:26:28.735Z,2.05
2022-10-23T13:28:56.175Z,2.30
2022-10-23T13:31:26.747Z,2.17
2022-10-23T13:33:59.464Z,2.10
2022-10-23T13:36:30.049Z,2.25
2022-10-23T13:39:00.054Z,2.40
2022-10-23T13:41:28.805Z,2.40
2022-10-23T13:43:55.238Z,2.15
2022-10-23T13:46:24.324Z,2.15
2022-10-23T13:48:51.381Z,2.10
2022-10-23T13:51:23.422Z,2.03
2022-10-23T13:53:50.818Z,2.40
2022-10-23T13:56:20.669Z,2.42
2022-10-23T13:58:47.553Z,2.65
2022-10-23T14:01:27.744Z,2.80
2022-10-23T14:03:56.035Z,2.53
2022-10-23T14:06:22.482Z,2.20
2022-10-23T14:08:49.075Z,2.28
2022-10-23T14:11:17.575Z,2.90
2022-10-23T14:13:44.630Z,2.10
2022-10-23T14:16:16.755Z,2.40
2022-10-23T14:18:43.606Z,2.70
2022-10-23T14:21:13.538Z,2.67
2022-10-23T14:23:40.246Z,2.40
2022-10-23T14:26:12.997Z,2.40
2022-10-23T14:28:39.448Z,2.63
2022-10-23T14:31:17.324Z,2.83
2022-10-23T14:33:45.571Z,3.10
2022-10-23T14:36:12.511Z,2.28
2022-10-23T14:38:39.070Z,2.60
2022-10-23T14:41:16.116Z,2.72
2022-10-23T14:43:43.072Z,2.58
2022-10-23T14:46:11.191Z,2.80
2022-10-23T14:48:40.214Z,2.58
2022-10-23T14:51:15.427Z,2.60
2022-10-23T14:53:42.022Z,3.22
2022-10-23T14:56:08.530Z,2.53
2022-10-23T14:58:35.010Z,3.50
2022-10-23T15:01:01.863Z,2.75
2022-10-23T15:03:28.940Z,2.45
2022-10-23T15:05:55.842Z,3.20
2022-10-23T15:08:23.427Z,3.05
2022-10-23T15:10:50.349Z,3.25
2022-10-23T15:13:16.965Z,3.35
2022-10-23T15:15:43.779Z,2.70
2022-10-23T15:18:10.305Z,2.78
2022-10-23T15:20:36.858Z,2.58
2022-10-23T15:23:03.693Z,2.60
2022-10-23T15:25:30.125Z,2.83
2022-10-23T15:27:56.555Z,2.70
2022-10-23T15:30:23.297Z,3.65
2022-10-23T15:32:49.829Z,3.20
2022-10-23T15:35:16.534Z,3.10
2022-10-23T15:37:43.274Z,3.00
2022-10-23T15:40:10.575Z,2.70
2022-10-23T15:42:37.073Z,3.58
2022-10-23T15:45:03.696Z,2.85
2022-10-23T15:47:30.130Z,2.97
2022-10-23T15:49:56.607Z,2.70
2022-10-23T15:52:23.119Z,3.03
2022-10-23T15:54:49.619Z,2.78
2022-10-23T15:57:16.205Z,2.80
2022-10-23T15:59:42.735Z,3.03
2022-10-23T16:02:11.574Z,3.00
2022-10-23T16:04:38.121Z,3.15
2022-10-23T16:07:04.635Z,3.00
2022-10-23T16:09:31.102Z,2.67
2022-10-23T16:11:57.614Z,2.97
2022-10-23T16:14:24.102Z,2.65
2022-10-23T16:16:50.530Z,2.63
2022-10-23T16:19:17.072Z,3.03
2022-10-23T16:21:43.500Z,2.97
2022-10-23T16:24:10.386Z,3.25
2022-10-23T16:26:37.830Z,3.08
2022-10-23T16:29:07.583Z,3.22
2022-10-23T16:31:35.427Z,3.40
2022-10-23T16:34:04.604Z,3.53
2022-10-23T16:36:31.197Z,3.30
2022-10-23T16:38:57.939Z,3.85
2022-10-23T16:41:25.066Z,4.65
2022-10-23T16:43:54.857Z,4.47
2022-10-23T16:47:06.746Z,4.57
2022-10-23T16:50:05.782Z,5.18
2022-10-23T16:52:52.088Z,4.80
2022-10-23T16:55:32.206Z,4.93
2022-10-23T16:58:09.393Z,5.20
2022-10-23T17:12:22.479Z,6.47
2022-10-23T17:17:44.880Z,4.15
2022-10-23T17:20:15.447Z,4.00
2022-10-23T17:22:42.491Z,4.18
2022-10-23T17:25:10.388Z,4.05
2022-10-23T17:27:37.187Z,4.50
2022-10-23T17:30:10.425Z,4.53
2022-10-23T17:32:39.291Z,3.72
2022-10-23T17:35:07.010Z,5.13
2022-10-23T17:37:39.555Z,4.70
2022-10-23T17:40:07.123Z,4.80
2022-10-23T17:45:45.532Z,3.78
2022-10-23T17:48:13.909Z,4.38
2022-10-23T17:50:40.953Z,4.13
2022-10-23T17:53:08.047Z,4.28
2022-10-23T17:55:40.849Z,4.80
2022-10-23T17:58:08.801Z,4.20
2022-10-23T18:00:39.187Z,4.32
2022-10-23T18:03:05.810Z,4.22
2022-10-23T18:05:33.203Z,4.07
2022-10-23T18:08:06.020Z,3.17
2022-10-23T18:10:35.944Z,3.38
2022-10-23T18:13:02.639Z,5.50
2022-10-23T18:15:29.527Z,6.72
2022-10-23T18:17:59.356Z,4.70
2022-10-23T18:20:55.746Z,3.70
2022-10-23T18:23:25.705Z,3.63
2022-10-23T18:25:52.385Z,3.70
2022-10-23T18:28:19.916Z,3.40
2022-10-23T18:30:52.192Z,4.15
2022-10-23T18:33:22.212Z,3.80
2022-10-23T18:35:49.385Z,3.42
2022-10-23T18:38:16.374Z,3.28
2022-10-23T18:40:44.181Z,3.63
2022-10-23T18:43:14.939Z,2.63
2022-10-23T18:45:46.863Z,3.25
2022-10-23T18:48:13.574Z,3.70
2022-10-23T18:50:43.235Z,3.20
2022-10-23T18:53:09.823Z,3.88
2022-10-23T18:55:36.417Z,3.40
2022-10-23T18:58:02.883Z,4.40
2022-10-23T19:00:29.345Z,3.50
2022-10-23T19:02:56.106Z,2.97
2022-10-23T19:05:22.973Z,3.00
2022-10-23T19:07:50.199Z,2.33
2022-10-23T19:10:21.713Z,2.70
2022-10-23T19:12:48.251Z,2.83
2022-10-23T19:18:06.442Z,2.67
2022-10-23T19:20:37.060Z,3.22
2022-10-23T19:23:15.280Z,3.13
2022-10-23T19:25:47.481Z,3.55
2022-10-23T19:28:14.337Z,2.92
2022-10-23T19:30:43.642Z,2.40
2022-10-23T19:33:10.291Z,3.08
2022-10-23T19:35:37.047Z,2.80
2022-10-23T19:38:03.655Z,2.50
2022-10-23T19:40:30.323Z,2.67
2022-10-23T19:42:56.904Z,2.90
2022-10-23T19:45:23.509Z,3.20
2022-10-23T19:47:50.068Z,2.50
2022-10-23T19:50:16.575Z,3.20
2022-10-23T19:52:45.319Z,3.13
2022-10-23T19:55:11.875Z,3.60
2022-10-23T19:57:38.563Z,3.03
2022-10-23T20:00:06.557Z,3.00
2022-10-23T20:05:06.195Z,3.17
2022-10-23T20:07:33.095Z,3.35
2022-10-23T20:10:00.259Z,2.85
2022-10-23T20:12:27.556Z,4.82
2022-10-23T20:14:54.973Z,4.70
2022-10-23T20:17:22.164Z,3.97
2022-10-23T20:19:48.970Z,4.70
2022-10-23T20:22:16.501Z,4.32
2022-10-23T20:24:43.077Z,4.20
2022-10-23T20:27:10.448Z,4.68
2022-10-23T20:29:37.128Z,4.93
2022-10-23T20:32:03.739Z,4.00
2022-10-23T20:34:33.291Z,4.20
2022-10-23T20:39:30.797Z,3.92
2022-10-23T20:41:57.498Z,4.43
2022-10-23T20:44:24.076Z,3.92
2022-10-23T20:46:50.588Z,4.60
2022-10-23T20:49:17.221Z,4.35
2022-10-23T20:51:43.875Z,4.30
2022-10-23T20:54:27.530Z,4.47
2022-10-23T20:56:54.483Z,3.97
2022-10-23T20:59:21.055Z,3.97
2022-10-23T21:01:50.048Z,3.90
2022-10-23T21:04:28.712Z,3.75
2022-10-23T21:07:09.306Z,4.17
2022-10-23T21:09:37.768Z,3.78
2022-10-23T21:12:06.294Z,3.80
2022-10-23T21:14:33.185Z,4.10
2022-10-23T21:16:59.748Z,4.07
2022-10-23T21:19:26.223Z,4.25
2022-10-23T21:21:52.737Z,4.45
2022-10-23T21:24:19.207Z,4.20
2022-10-23T21:26:45.849Z,3.63
2022-10-23T21:29:21.011Z,4.05
2022-10-23T21:31:59.400Z,4.18
2022-10-23T21:34:26.915Z,3.97
2022-10-23T21:37:11.912Z,4.05
2022-10-23T21:39:41.568Z,4.07
2022-10-23T21:42:08.254Z,3.95
2022-10-23T21:44:34.759Z,3.80
2022-10-23T21:47:01.224Z,3.95
2022-10-23T21:49:27.662Z,4.10
2022-10-23T21:51:54.941Z,4.25
2022-10-23T21:54:21.691Z,3.55
2022-10-23T21:56:51.268Z,3.70
2022-10-23T22:01:47.043Z,3.83
2022-10-23T22:04:15.352Z,3.72
2022-10-23T22:06:43.760Z,3.50
2022-10-23T22:09:13.419Z,3.25
2022-10-23T22:11:40.319Z,3.75
2022-10-23T22:14:06.990Z,3.70
2022-10-23T22:16:33.434Z,3.92
2022-10-23T22:18:59.945Z,4.13
2022-10-23T22:21:28.343Z,3.58
2022-10-23T22:23:57.041Z,3.88
2022-10-23T22:26:32.385Z,4.07
2022-10-23T22:29:02.275Z,3.65
2022-10-23T22:31:31.536Z,3.92
2022-10-23T22:33:59.019Z,3.33
2022-10-23T22:36:26.322Z,3.80
2022-10-23T22:38:54.298Z,4.25
2022-10-23T22:41:21.005Z,3.92
2022-10-23T22:43:47.518Z,4.07
2022-10-23T22:46:20.180Z,4.07
2022-10-23T22:48:46.688Z,3.78
2022-10-23T22:51:15.165Z,3.40
2022-10-23T22:53:42.202Z,3.00
2022-10-23T22:56:11.166Z,4.03
2022-10-23T22:58:38.005Z,3.85
2022-10-23T23:01:20.772Z,3.92
2022-10-23T23:03:47.581Z,3.42
2022-10-23T23:06:18.297Z,3.67
2022-10-23T23:08:45.379Z,3.78
2022-10-23T23:11:14.288Z,3.65
2022-10-23T23:13:42.504Z,4.25
2022-10-23T23:16:24.206Z,4.07
2022-10-23T23:18:51.447Z,3.63
2022-10-23T23:21:18.365Z,3.83
2022-10-23T23:23:45.996Z,3.30
2022-10-23T23:26:21.741Z,3.92
2022-10-23T23:28:56.442Z,4.65
2022-10-23T23:31:25.761Z,3.90
2022-10-23T23:33:53.670Z,5.20
2022-10-23T23:36:25.839Z,4.03
2022-10-23T23:38:52.914Z,3.55
2022-10-23T23:41:20.665Z,3.47
2022-10-23T23:43:47.401Z,3.10
2022-10-23T23:46:14.387Z,3.67
2022-10-23T23:48:42.561Z,4.22
2022-10-23T23:51:09.243Z,3.88
2022-10-23T23:53:35.778Z,3.97
2022-10-23T23:56:02.271Z,3.67
2022-10-23T23:58:28.736Z,4.00
